Time;durP1;ratioP1;P1;durP2;ratioP2;P2;SDS_P1;SDS_P2;PMS_P1;PMS_P2;Temp;Humidity;BMP_temperature;BMP_pressure;BME280_temperature;BME280_humidity;BME280_pressure;Samples;Min_cycle;Max_cycle;Signal;HPM_P1;HPM_P2
2023/06/14 00:00:20;;;;;;;;;;;;;;;;;;137216;1275;22873;-81
2023/06/14 00:03:43;;;;;;;;;;;;;;;;;;137303;1275;22506;-84
2023/06/14 00:06:45;;;;;;;;;;;;;;;;;;137210;1275;22501;-82
2023/06/14 00:09:47;;;;;;;;;;;;;;;;;;137192;1275;22500;-82
2023/06/14 00:12:50;;;;;;;;;;;;;;;;;;137156;1275;22561;-81
2023/06/14 00:15:54;;;;;;;;;;;;;;;;;;137452;1268;22623;-82
2023/06/14 00:18:57;;;;;;;;;;;;;;;;;;137162;1275;22922;-82
2023/06/14 00:22:00;;;;;;;;;;;;;;;;;;137040;1275;25207;-82
2023/06/14 00:25:03;;;;;;;;;;;;;;;;;;137102;1275;22572;-82
2023/06/14 00:28:05;;;;;;;;;;;;;;;;;;137027;1275;22501;-82
2023/06/14 00:31:08;;;;;;;;;;;;;;;;;;137152;1275;22503;-82
2023/06/14 00:34:10;;;;;;;;;;;;;;;;;;137369;1275;22554;-82
2023/06/14 00:37:12;;;;;;;;;;;;;;;;;;137107;1275;22488;-82
2023/06/14 00:40:15;;;;;;;;;;;;;;;;;;137242;1275;22532;-82
2023/06/14 00:43:17;;;;;;;;;;;;;;;;;;137171;1275;23312;-82
2023/06/14 00:46:22;;;;;;;;;;;;;;;;;;137422;1275;23475;-82
2023/06/14 00:49:24;;;;;;;;;;;;;;;;;;137297;1275;22519;-83
2023/06/14 00:52:27;;;;;;;;;;;;;;;;;;137288;1275;22607;-83
2023/06/14 00:55:30;;;;;;;;;;;;;;;;;;137261;1275;22483;-82
2023/06/14 00:58:32;;;;;;;;;;;;;;;;;;137272;1275;22973;-81
2023/06/14 01:01:35;;;;;;;;;;;;;;;;;;137321;1275;22533;-82
2023/06/14 01:04:37;;;;;;;;;;;;;;;;;;137245;1272;22494;-82
2023/06/14 01:07:39;;;;;;;;;;;;;;;;;;137329;1275;22545;-82
2023/06/14 01:10:42;;;;;;;;;;;;;;;;;;137315;1275;22505;-82
2023/06/14 01:13:45;;;;;;;;;;;;;;;;;;137237;1272;22516;-83
2023/06/14 01:16:47;;;;;;;;;;;;;;;;;;137237;1275;22533;-83
2023/06/14 01:19:56;;;;;;;;;;;;;;;;;;137303;1275;22934;-82
2023/06/14 01:22:59;;;;;;;;;;;;;;;;;;137224;1275;22544;-82
2023/06/14 01:26:02;;;;;;;;;;;;;;;;;;137383;1272;22516;-83
2023/06/14 01:29:05;;;;;;;;;;;;;;;;;;137207;1275;22511;-82
2023/06/14 01:32:07;;;;;;;;;;;;;;;;;;137205;1272;22558;-83
2023/06/14 01:35:10;;;;;;;;;;;;;;;;;;137449;1275;22441;-83
2023/06/14 01:38:12;;;;;;;;;;;;;;;;;;137133;1272;22473;-82
2023/06/14 01:41:15;;;;;;;;;;;;;;;;;;137147;1275;22525;-82
2023/06/14 01:44:17;;;;;;;;;;;;;;;;;;137262;1275;22529;-82
2023/06/14 01:47:22;;;;;;;;;;;;;;;;;;137449;1275;22506;-83
2023/06/14 01:50:25;;;;;;;;;;;;;;;;;;137339;1275;22959;-82
2023/06/14 01:53:27;;;;;;;;;;;;;;;;;;137246;1275;22526;-82
2023/06/14 01:56:30;;;;;;;;;;;;;;;;;;137352;1275;23172;-82
2023/06/14 01:59:34;;;;;;;;;;;;;;;;;;137374;1275;23128;-83
2023/06/14 02:02:37;;;;;;;;;;;;;;;;;;137216;1271;23022;-82
2023/06/14 02:05:39;;;;;;;;;;;;;;;;;;137375;1275;25253;-82
2023/06/14 02:08:42;;;;;;;;;;;;;;;;;;137349;1275;22493;-83
2023/06/14 02:11:44;;;;;;;;;;;;;;;;;;137189;1275;22954;-81
2023/06/14 02:14:48;;;;;;;;;;;;;;;;;;137231;1275;23090;-83
2023/06/14 02:17:50;;;;;;;;;;;;;;;;;;137279;1272;22555;-83
2023/06/14 02:20:53;;;;;;;;;;;;;;;;;;137303;1275;22870;-84
2023/06/14 02:23:55;;;;;;;;;;;;;;;;;;137173;1275;22973;-83
2023/06/14 02:26:58;;;;;;;;;;;;;;;;;;137282;1275;22592;-82
2023/06/14 02:30:01;;;;;;;;;;;;;;;;;;137376;1275;22515;-82
2023/06/14 02:33:04;;;;;;;;;;;;;;;;;;136991;1275;212413;-82
2023/06/14 02:36:06;;;;;;;;;;;;;;;;;;137518;1274;22331;-82
2023/06/14 02:39:10;;;;;;;;;;;;;;;;;;137514;1274;22591;-83
2023/06/14 02:42:13;;;;;;;;;;;;;;;;;;137398;1274;22492;-82
2023/06/14 02:45:16;;;;;;;;;;;;;;;;;;137491;1274;22545;-82
2023/06/14 02:48:21;;;;;;;;;;;;;;;;;;137390;1274;24774;-81
2023/06/14 02:51:23;;;;;;;;;;;;;;;;;;137532;1270;22323;-83
2023/06/14 02:54:26;;;;;;;;;;;;;;;;;;137368;1274;22538;-83
2023/06/14 02:57:28;;;;;;;;;;;;;;;;;;137530;1274;22523;-84
2023/06/14 03:00:30;;;;;;;;;;;;;;;;;;137554;1274;22328;-82
2023/06/14 03:03:33;;;;;;;;;;;;;;;;;;137435;1274;22492;-82
2023/06/14 03:06:36;;;;;;;;;;;;;;;;;;137442;1274;22502;-83
2023/06/14 03:09:38;;;;;;;;;;;;;;;;;;137363;1274;22564;-83
2023/06/14 03:12:41;;;;;;;;;;;;;;;;;;137458;1274;22553;-83
2023/06/14 03:15:44;;;;;;;;;;;;;;;;;;137453;1274;22495;-82
2023/06/14 03:18:47;;;;;;;;;;;;;;;;;;137410;1274;23066;-82
2023/06/14 03:21:49;;;;;;;;;;;;;;;;;;137333;1274;22520;-82
2023/06/14 03:24:52;;;;;;;;;;;;;;;;;;137315;1274;22538;-82
2023/06/14 03:27:54;;;;;;;;;;;;;;;;;;137373;1274;22514;-81
2023/06/14 03:30:57;;;;;;;;;;;;;;;;;;137503;1274;22483;-81
2023/06/14 03:33:59;;;;;;;;;;;;;;;;;;137234;1274;22553;-81
2023/06/14 03:37:02;;;;;;;;;;;;;;;;;;137592;1274;22277;-82
2023/06/14 03:40:06;;;;;;;;;;;;;;;;;;137388;1274;22940;-81
2023/06/14 03:43:09;;;;;;;;;;;;;;;;;;137527;1274;22924;-81
2023/06/14 03:46:11;;;;;;;;;;;;;;;;;;137235;1274;22631;-81
2023/06/14 03:49:16;;;;;;;;;;;;;;;;;;137033;1274;22532;-82
2023/06/14 03:52:18;;;;;;;;;;;;;;;;;;136863;1274;23200;-81
2023/06/14 03:55:25;;;;;;;;;;;;;;;;;;137459;1274;22558;-78
2023/06/14 03:58:27;;;;;;;;;;;;;;;;;;137435;1274;22346;-77
2023/06/14 04:01:31;;;;;;;;;;;;;;;;;;137496;1274;22369;-81
2023/06/14 04:04:36;;;;;;;;;;;;;;;;;;137487;1274;22305;-81
2023/06/14 04:07:39;;;;;;;;;;;;;;;;;;137528;1274;22257;-82
2023/06/14 04:10:42;;;;;;;;;;;;;;;;;;137437;1274;22525;-82
2023/06/14 04:13:45;;;;;;;;;;;;;;;;;;137464;1274;22490;-81
2023/06/14 04:16:47;;;;;;;;;;;;;;;;;;137317;1274;22566;-82
2023/06/14 04:19:50;;;;;;;;;;;;;;;;;;137532;1274;22477;-83
2023/06/14 04:22:53;;;;;;;;;;;;;;;;;;137366;1274;22989;-83
2023/06/14 04:26:01;;;;;;;;;;;;;;;;;;137583;1274;22867;-83
2023/06/14 04:29:05;;;;;;;;;;;;;;;;;;137430;1274;22492;-83
2023/06/14 04:32:09;;;;;;;;;;;;;;;;;;137644;1274;22348;-83
2023/06/14 04:35:12;;;;;;;;;;;;;;;;;;137585;1274;22365;-82
2023/06/14 04:38:15;;;;;;;;;;;;;;;;;;137519;1270;22288;-84
2023/06/14 04:41:19;;;;;;;;;;;;;;;;;;137436;1274;23161;-82
2023/06/14 04:44:24;;;;;;;;;;;;;;;;;;137431;1274;22756;-82
2023/06/14 04:47:29;;;;;;;;;;;;;;;;;;137373;1274;23234;-84
2023/06/14 04:50:32;;;;;;;;;;;;;;;;;;137391;1274;22345;-82
2023/06/14 04:53:35;;;;;;;;;;;;;;;;;;137395;1274;22300;-83
2023/06/14 04:56:37;;;;;;;;;;;;;;;;;;137414;1268;22290;-82
2023/06/14 04:59:40;;;;;;;;;;;;;;;;;;137408;1274;22776;-82
2023/06/14 05:02:42;;;;;;;;;;;;;;;;;;137410;1274;22322;-81
2023/06/14 05:05:45;;;;;;;;;;;;;;;;;;137396;1274;23262;-83
2023/06/14 05:08:47;;;;;;;;;;;;;;;;;;137382;1274;22370;-83
2023/06/14 05:11:50;;;;;;;;;;;;;;;;;;137405;1274;22321;-82
2023/06/14 05:14:52;;;;;;;;;;;;;;;;;;137410;1274;22280;-82
2023/06/14 05:17:55;;;;;;;;;;;;;;;;;;137379;1274;22423;-82
2023/06/14 05:20:58;;;;;;;;;;;;;;;;;;137400;1274;22338;-81
2023/06/14 05:24:00;;;;;;;;;;;;;;;;;;137382;1274;22349;-81
2023/06/14 05:27:03;;;;;;;;;;;;;;;;;;137384;1272;22246;-81
2023/06/14 05:30:06;;;;;;;;;;;;;;;;;;137424;1274;22271;-82
2023/06/14 05:33:09;;;;;;;;;;;;;;;;;;137438;1274;22328;-82
2023/06/14 05:36:12;;;;;;;;;;;;;;;;;;137385;1274;22960;-82
2023/06/14 05:39:15;;;;;;;;;;;;;;;;;;137457;1274;22489;-81
2023/06/14 05:42:17;;;;;;;;;;;;;;;;;;137453;1274;22637;-81
2023/06/14 05:45:20;;;;;;;;;;;;;;;;;;137450;1274;22389;-82
2023/06/14 05:48:22;;;;;;;;;;;;;;;;;;137459;1274;22393;-81
2023/06/14 05:51:26;;;;;;;;;;;;;;;;;;137448;1274;22260;-82
2023/06/14 05:54:28;;;;;;;;;;;;;;;;;;137401;1274;22221;-83
2023/06/14 05:57:31;;;;;;;;;;;;;;;;;;137455;1274;22810;-82
2023/06/14 06:00:34;;;;;;;;;;;;;;;;;;137373;1274;22257;-82
2023/06/14 06:03:36;;;;;;;;;;;;;;;;;;137472;1274;22417;-82
2023/06/14 06:06:39;;;;;;;;;;;;;;;;;;137402;1274;22380;-83
2023/06/14 06:09:43;;;;;;;;;;;;;;;;;;137397;1274;22459;-85
2023/06/14 06:12:47;;;;;;;;;;;;;;;;;;137509;1274;22274;-83
2023/06/14 06:15:50;;;;;;;;;;;;;;;;;;137541;1274;22278;-83
2023/06/14 06:18:54;;;;;;;;;;;;;;;;;;137417;1274;22558;-83
2023/06/14 06:21:56;;;;;;;;;;;;;;;;;;137549;1272;22635;-85
2023/06/14 06:24:59;;;;;;;;;;;;;;;;;;137467;1274;22529;-82
2023/06/14 06:28:02;;;;;;;;;;;;;;;;;;137499;1274;22350;-84
2023/06/14 06:31:05;;;;;;;;;;;;;;;;;;136967;1274;22527;-83
2023/06/14 06:34:07;;;;;;;;;;;;;;;;;;137528;1274;22480;-82
2023/06/14 06:37:10;;;;;;;;;;;;;;;;;;137495;1274;22415;-83
2023/06/14 06:40:12;;;;;;;;;;;;;;;;;;137456;1274;22326;-85
2023/06/14 06:43:16;;;;;;;;;;;;;;;;;;137409;1274;22320;-83
2023/06/14 06:46:19;;;;;;;;;;;;;;;;;;137432;1274;22282;-83
2023/06/14 06:49:22;;;;;;;;;;;;;;;;;;137427;1274;22455;-83
2023/06/14 06:52:24;;;;;;;;;;;;;;;;;;137433;1274;22368;-83
2023/06/14 06:55:27;;;;;;;;;;;;;;;;;;137420;1274;22316;-82
2023/06/14 06:58:30;;;;;;;;;;;;;;;;;;137419;1274;22683;-82
2023/06/14 07:01:33;;;;;;;;;;;;;;;;;;137444;1274;22623;-83
2023/06/14 07:04:36;;;;;;;;;;;;;;;;;;137423;1274;22292;-84
2023/06/14 07:07:38;;;;;;;;;;;;;;;;;;137425;1274;22313;-82
2023/06/14 07:10:41;;;;;;;;;;;;;;;;;;137400;1274;22912;-81
2023/06/14 07:13:43;;;;;;;;;;;;;;;;;;137419;1274;22385;-83
2023/06/14 07:16:46;;;;;;;;;;;;;;;;;;137412;1274;22418;-83
2023/06/14 07:19:49;;;;;;;;;;;;;;;;;;137389;1273;22522;-83
2023/06/14 07:22:51;;;;;;;;;;;;;;;;;;137467;1274;22493;-83
2023/06/14 07:25:53;;;;;;;;;;;;;;;;;;137421;1274;22501;-84
2023/06/14 07:28:56;;;;;;;;;;;;;;;;;;137455;1274;22285;-83
2023/06/14 07:31:58;;;;;;;;;;;;;;;;;;137374;1274;22530;-83
2023/06/14 07:35:01;;;;;;;;;;;;;;;;;;137412;1274;22321;-82
2023/06/14 07:38:04;;;;;;;;;;;;;;;;;;137405;1274;22279;-82
2023/06/14 07:41:06;;;;;;;;;;;;;;;;;;137425;1274;22339;-82
2023/06/14 07:44:10;;;;;;;;;;;;;;;;;;137505;1274;22334;-82
2023/06/14 07:47:12;;;;;;;;;;;;;;;;;;137398;1274;22500;-83
2023/06/14 07:50:15;;;;;;;;;;;;;;;;;;137465;1274;22308;-80
2023/06/14 07:53:17;;;;;;;;;;;;;;;;;;137437;1274;22584;-81
2023/06/14 07:56:25;;;;;;;;;;;;;;;;;;137582;1274;22520;-80
2023/06/14 07:59:28;;;;;;;;;;;;;;;;;;137559;1272;22544;-79
2023/06/14 08:02:30;;;;;;;;;;;;;;;;;;137581;1274;22328;-80
2023/06/14 08:05:36;;;;;;;;;;;;;;;;;;137661;1274;22420;-84
2023/06/14 08:08:39;;;;;;;;;;;;;;;;;;137570;1274;22321;-82
2023/06/14 08:15:18;;;;;;;;;;;;;;;;;;137483;1274;23005;-81
2023/06/14 08:18:21;;;;;;;;;;;;;;;;;;137411;1274;22419;-82
2023/06/14 08:21:23;;;;;;;;;;;;;;;;;;137432;1274;22794;-81
2023/06/14 08:24:28;;;;;;;;;;;;;;;;;;137381;1274;22367;-80
2023/06/14 08:27:30;;;;;;;;;;;;;;;;;;137396;1275;22329;-80
2023/06/14 08:30:33;;;;;;;;;;;;;;;;;;137427;1274;22518;-80
2023/06/14 08:33:36;;;;;;;;;;;;;;;;;;137449;1274;23292;-81
2023/06/14 08:36:42;;;;;;;;;;;;;;;;;;137540;1264;22290;-82
2023/06/14 08:39:45;;;;;;;;;;;;;;;;;;137525;1275;22335;-85
2023/06/14 08:42:47;;;;;;;;;;;;;;;;;;137516;1274;22332;-83
2023/06/14 08:45:50;;;;;;;;;;;;;;;;;;137529;1274;22885;-82
2023/06/14 08:48:53;;;;;;;;;;;;;;;;;;137427;1274;22378;-84
2023/06/14 08:51:57;;;;;;;;;;;;;;;;;;137440;1274;22573;-84
2023/06/14 08:54:59;;;;;;;;;;;;;;;;;;137461;1270;22287;-83
2023/06/14 08:58:04;;;;;;;;;;;;;;;;;;137446;1274;22296;-83
2023/06/14 09:01:07;;;;;;;;;;;;;;;;;;137452;1274;22660;-84
2023/06/14 09:04:10;;;;;;;;;;;;;;;;;;137462;1274;22282;-83
2023/06/14 09:07:12;;;;;;;;;;;;;;;;;;137230;1274;22514;-84
2023/06/14 09:10:15;;;;;;;;;;;;;;;;;;137483;1274;22304;-84
2023/06/14 09:13:17;;;;;;;;;;;;;;;;;;137467;1274;22273;-83
2023/06/14 09:16:20;;;;;;;;;;;;;;;;;;137481;1274;22861;-83
2023/06/14 09:19:23;;;;;;;;;;;;;;;;;;137431;1270;22458;-82
2023/06/14 09:22:25;;;;;;;;;;;;;;;;;;137400;1274;22313;-83
2023/06/14 09:25:28;;;;;;;;;;;;;;;;;;137476;1274;22373;-85
2023/06/14 09:28:30;;;;;;;;;;;;;;;;;;137445;1269;22515;-84
2023/06/14 09:31:33;;;;;;;;;;;;;;;;;;137371;1274;22510;-82
2023/06/14 09:34:37;;;;;;;;;;;;;;;;;;137408;1267;22280;-85
2023/06/14 09:37:40;;;;;;;;;;;;;;;;;;137437;1274;22275;-84
2023/06/14 09:40:42;;;;;;;;;;;;;;;;;;137457;1274;22402;-85
2023/06/14 09:43:49;;;;;;;;;;;;;;;;;;137397;1274;22277;-83
2023/06/14 09:46:52;;;;;;;;;;;;;;;;;;137405;1274;22523;-83
2023/06/14 09:49:55;;;;;;;;;;;;;;;;;;137391;1274;22278;-82
2023/06/14 09:52:57;;;;;;;;;;;;;;;;;;137409;1274;22325;-82
2023/06/14 09:56:00;;;;;;;;;;;;;;;;;;137436;1274;22429;-83
2023/06/14 09:59:02;;;;;;;;;;;;;;;;;;137431;1270;22347;-83
2023/06/14 10:02:05;;;;;;;;;;;;;;;;;;137486;1274;22349;-83
2023/06/14 10:05:08;;;;;;;;;;;;;;;;;;137371;1274;23179;-82
2023/06/14 10:08:11;;;;;;;;;;;;;;;;;;137442;1274;22313;-83
2023/06/14 10:11:16;;;;;;;;;;;;;;;;;;137425;1274;22409;-83
2023/06/14 10:14:19;;;;;;;;;;;;;;;;;;137398;1274;22919;-83
2023/06/14 10:17:22;;;;;;;;;;;;;;;;;;137465;1270;22428;-84
2023/06/14 10:20:24;;;;;;;;;;;;;;;;;;137437;1274;22856;-84
2023/06/14 10:23:26;;;;;;;;;;;;;;;;;;137329;1261;22382;-83
2023/06/14 10:26:29;;;;;;;;;;;;;;;;;;137415;1274;22547;-84
2023/06/14 10:29:32;;;;;;;;;;;;;;;;;;137453;1274;22351;-84
2023/06/14 10:32:34;;;;;;;;;;;;;;;;;;137439;1274;22341;-82
2023/06/14 10:35:37;;;;;;;;;;;;;;;;;;137492;1274;22394;-82
2023/06/14 10:38:39;;;;;;;;;;;;;;;;;;137483;1274;22375;-80
2023/06/14 10:41:42;;;;;;;;;;;;;;;;;;137419;1274;22315;-84
2023/06/14 10:44:44;;;;;;;;;;;;;;;;;;137487;1274;22330;-83
2023/06/14 10:47:48;;;;;;;;;;;;;;;;;;137375;1270;22466;-83
2023/06/14 10:50:51;;;;;;;;;;;;;;;;;;137470;1274;23106;-83
2023/06/14 10:53:54;;;;;;;;;;;;;;;;;;137323;1274;22500;-82
2023/06/14 10:57:00;;;;;;;;;;;;;;;;;;137427;1274;22349;-77
2023/06/14 11:00:11;;;;;;;;;;;;;;;;;;137401;1274;22405;-83
2023/06/14 11:03:14;;;;;;;;;;;;;;;;;;137420;1274;22422;-84
2023/06/14 11:06:18;;;;;;;;;;;;;;;;;;137399;1274;22859;-84
2023/06/14 11:09:22;;;;;;;;;;;;;;;;;;137463;1274;22298;-85
2023/06/14 11:12:24;;;;;;;;;;;;;;;;;;137456;1274;22382;-82
2023/06/14 11:15:27;;;;;;;;;;;;;;;;;;137477;1274;22333;-83
2023/06/14 11:18:30;;;;;;;;;;;;;;;;;;137448;1274;22406;-84
2023/06/14 11:21:33;;;;;;;;;;;;;;;;;;137431;1274;22556;-83
2023/06/14 11:24:35;;;;;;;;;;;;;;;;;;137465;1274;22257;-83
2023/06/14 11:27:38;;;;;;;;;;;;;;;;;;137432;1274;22319;-84
2023/06/14 11:30:40;;;;;;;;;;;;;;;;;;137441;1274;22278;-84
2023/06/14 11:33:43;;;;;;;;;;;;;;;;;;137385;1274;22486;-84
2023/06/14 11:36:47;;;;;;;;;;;;;;;;;;137548;1274;22568;-84
2023/06/14 11:39:50;;;;;;;;;;;;;;;;;;137503;1274;22538;-83
2023/06/14 11:42:52;;;;;;;;;;;;;;;;;;137426;1274;22543;-85
2023/06/14 11:45:55;;;;;;;;;;;;;;;;;;137396;1274;22553;-82
2023/06/14 11:48:57;;;;;;;;;;;;;;;;;;137674;1274;22463;-83
2023/06/14 11:52:00;;;;;;;;;;;;;;;;;;137685;1260;22280;-83
2023/06/14 11:55:04;;;;;;;;;;;;;;;;;;137646;1267;22342;-83
2023/06/14 11:58:07;;;;;;;;;;;;;;;;;;137639;1274;22354;-82
2023/06/14 12:01:09;;;;;;;;;;;;;;;;;;137473;1274;22740;-83
2023/06/14 12:04:12;;;;;;;;;;;;;;;;;;137486;1274;22359;-82
2023/06/14 12:07:15;;;;;;;;;;;;;;;;;;137416;1274;22283;-82
2023/06/14 12:10:18;;;;;;;;;;;;;;;;;;137365;1274;22351;-82
2023/06/14 12:13:20;;;;;;;;;;;;;;;;;;137383;1274;22333;-82
2023/06/14 12:16:24;;;;;;;;;;;;;;;;;;137399;1274;22795;-83
2023/06/14 12:19:26;;;;;;;;;;;;;;;;;;137339;1273;22401;-82
2023/06/14 12:22:31;;;;;;;;;;;;;;;;;;137362;1274;22363;-83
2023/06/14 12:25:35;;;;;;;;;;;;;;;;;;137335;1274;22328;-81
2023/06/14 12:28:37;;;;;;;;;;;;;;;;;;137288;1274;22839;-81
2023/06/14 12:31:40;;;;;;;;;;;;;;;;;;137336;1274;22313;-81
2023/06/14 12:34:42;;;;;;;;;;;;;;;;;;137342;1268;22330;-80
2023/06/14 12:37:46;;;;;;;;;;;;;;;;;;137310;1274;22284;-82
2023/06/14 12:40:49;;;;;;;;;;;;;;;;;;137297;1274;22292;-83
2023/06/14 12:43:51;;;;;;;;;;;;;;;;;;137373;1274;22304;-83
2023/06/14 12:46:54;;;;;;;;;;;;;;;;;;137431;1274;22486;-81
2023/06/14 12:49:57;;;;;;;;;;;;;;;;;;137394;1274;22379;-80
2023/06/14 12:52:59;;;;;;;;;;;;;;;;;;137416;1274;22328;-82
2023/06/14 12:56:02;;;;;;;;;;;;;;;;;;137412;1274;22470;-83
2023/06/14 12:59:05;;;;;;;;;;;;;;;;;;137393;1274;22318;-81
2023/06/14 13:02:08;;;;;;;;;;;;;;;;;;137412;1274;22265;-82
2023/06/14 13:05:11;;;;;;;;;;;;;;;;;;137430;1267;22406;-83
2023/06/14 13:08:13;;;;;;;;;;;;;;;;;;137349;1267;22315;-81
2023/06/14 13:11:16;;;;;;;;;;;;;;;;;;137345;1274;22263;-81
2023/06/14 13:14:18;;;;;;;;;;;;;;;;;;137396;1274;22307;-83
2023/06/14 13:17:21;;;;;;;;;;;;;;;;;;137431;1274;22353;-82
2023/06/14 13:20:24;;;;;;;;;;;;;;;;;;137399;1274;22408;-82
2023/06/14 13:23:26;;;;;;;;;;;;;;;;;;137404;1274;22327;-81
2023/06/14 13:26:29;;;;;;;;;;;;;;;;;;137368;1274;22369;-82
2023/06/14 13:29:33;;;;;;;;;;;;;;;;;;137321;1274;22280;-81
2023/06/14 13:32:35;;;;;;;;;;;;;;;;;;137416;1274;22365;-81
2023/06/14 13:35:38;;;;;;;;;;;;;;;;;;137416;1274;22397;-82
2023/06/14 13:38:40;;;;;;;;;;;;;;;;;;137449;1274;22325;-81
2023/06/14 13:41:43;;;;;;;;;;;;;;;;;;137437;1274;22287;-80
2023/06/14 13:44:45;;;;;;;;;;;;;;;;;;137457;1274;22365;-80
2023/06/14 13:47:48;;;;;;;;;;;;;;;;;;137434;1274;22434;-80
2023/06/14 13:50:50;;;;;;;;;;;;;;;;;;137423;1274;22328;-80
2023/06/14 13:53:53;;;;;;;;;;;;;;;;;;137509;1274;22354;-81
2023/06/14 13:56:55;;;;;;;;;;;;;;;;;;137401;1274;22484;-81
2023/06/14 14:00:00;;;;;;;;;;;;;;;;;;137465;1274;22977;-82
2023/06/14 14:03:03;;;;;;;;;;;;;;;;;;137490;1274;22316;-81
2023/06/14 14:06:09;;;;;;;;;;;;;;;;;;137522;1274;22263;-83
2023/06/14 14:09:12;;;;;;;;;;;;;;;;;;137410;1274;22340;-81
2023/06/14 14:12:15;;;;;;;;;;;;;;;;;;137357;1274;23208;-81
2023/06/14 14:15:18;;;;;;;;;;;;;;;;;;137440;1274;22806;-81
2023/06/14 14:18:21;;;;;;;;;;;;;;;;;;137469;1274;22490;-81
2023/06/14 14:21:23;;;;;;;;;;;;;;;;;;137464;1263;22262;-82
2023/06/14 14:24:26;;;;;;;;;;;;;;;;;;137479;1274;22288;-81
2023/06/14 14:27:28;;;;;;;;;;;;;;;;;;137420;1274;22779;-81
2023/06/14 14:30:31;;;;;;;;;;;;;;;;;;137393;1274;22787;-82
2023/06/14 14:33:34;;;;;;;;;;;;;;;;;;137296;1274;158223;-82
2023/06/14 14:36:37;;;;;;;;;;;;;;;;;;137401;1267;22336;-82
2023/06/14 14:39:40;;;;;;;;;;;;;;;;;;137519;1274;22935;-80
2023/06/14 14:42:42;;;;;;;;;;;;;;;;;;137465;1274;22295;-81
2023/06/14 14:45:44;;;;;;;;;;;;;;;;;;137487;1274;22428;-81
2023/06/14 14:48:47;;;;;;;;;;;;;;;;;;137442;1274;22429;-83
2023/06/14 14:51:49;;;;;;;;;;;;;;;;;;137445;1274;22550;-81
2023/06/14 14:54:53;;;;;;;;;;;;;;;;;;137452;1274;22516;-81
2023/06/14 14:57:55;;;;;;;;;;;;;;;;;;137484;1274;22332;-82
2023/06/14 15:00:57;;;;;;;;;;;;;;;;;;137481;1274;22308;-81
2023/06/14 15:04:00;;;;;;;;;;;;;;;;;;137247;1274;22501;-83
2023/06/14 15:07:03;;;;;;;;;;;;;;;;;;137485;1274;22331;-83
2023/06/14 15:10:06;;;;;;;;;;;;;;;;;;137452;1274;22280;-83
2023/06/14 15:13:08;;;;;;;;;;;;;;;;;;137505;1274;22401;-83
2023/06/14 15:16:11;;;;;;;;;;;;;;;;;;137475;1274;23010;-84
2023/06/14 15:19:13;;;;;;;;;;;;;;;;;;137496;1274;22417;-82
2023/06/14 15:22:16;;;;;;;;;;;;;;;;;;137405;1274;22485;-83
2023/06/14 15:25:19;;;;;;;;;;;;;;;;;;137380;1274;22495;-84
2023/06/14 15:28:24;;;;;;;;;;;;;;;;;;137343;1274;22858;-83
2023/06/14 15:31:27;;;;;;;;;;;;;;;;;;137464;1274;22595;-83
2023/06/14 15:34:33;;;;;;;;;;;;;;;;;;137350;1274;22523;-83
2023/06/14 15:37:35;;;;;;;;;;;;;;;;;;137658;1274;22335;-82
2023/06/14 15:40:38;;;;;;;;;;;;;;;;;;137690;1274;22340;-82
2023/06/14 15:43:40;;;;;;;;;;;;;;;;;;137625;1274;22262;-81
2023/06/14 15:46:43;;;;;;;;;;;;;;;;;;137513;1274;22434;-80
2023/06/14 15:49:45;;;;;;;;;;;;;;;;;;137585;1274;22325;-82
2023/06/14 15:52:47;;;;;;;;;;;;;;;;;;137482;1274;22939;-81
2023/06/14 15:55:50;;;;;;;;;;;;;;;;;;137448;1274;22328;-82
2023/06/14 15:58:55;;;;;;;;;;;;;;;;;;137475;1274;22316;-82
2023/06/14 16:01:58;;;;;;;;;;;;;;;;;;137472;1272;22299;-82
2023/06/14 16:05:00;;;;;;;;;;;;;;;;;;137457;1274;22316;-80
2023/06/14 16:08:02;;;;;;;;;;;;;;;;;;137437;1274;22754;-79
2023/06/14 16:11:05;;;;;;;;;;;;;;;;;;137456;1274;22799;-82
2023/06/14 16:14:07;;;;;;;;;;;;;;;;;;137490;1274;22316;-80
2023/06/14 16:17:10;;;;;;;;;;;;;;;;;;137415;1274;22462;-80
2023/06/14 16:20:12;;;;;;;;;;;;;;;;;;137433;1274;22441;-80
2023/06/14 16:23:15;;;;;;;;;;;;;;;;;;137480;1274;23000;-80
2023/06/14 16:26:17;;;;;;;;;;;;;;;;;;137467;1274;22932;-80
2023/06/14 16:29:20;;;;;;;;;;;;;;;;;;137413;1273;22421;-80
2023/06/14 16:32:22;;;;;;;;;;;;;;;;;;137391;1274;22278;-79
2023/06/14 16:35:25;;;;;;;;;;;;;;;;;;137453;1274;22351;-79
2023/06/14 16:38:27;;;;;;;;;;;;;;;;;;137513;1274;22327;-80
2023/06/14 16:41:29;;;;;;;;;;;;;;;;;;137466;1274;22341;-80
2023/06/14 16:44:32;;;;;;;;;;;;;;;;;;137400;1274;23009;-79
2023/06/14 16:47:35;;;;;;;;;;;;;;;;;;137489;1274;22398;-79
2023/06/14 16:50:37;;;;;;;;;;;;;;;;;;137502;1274;22323;-80
2023/06/14 16:53:40;;;;;;;;;;;;;;;;;;137498;1274;22495;-80
2023/06/14 16:56:42;;;;;;;;;;;;;;;;;;137559;1274;22293;-80
2023/06/14 16:59:45;;;;;;;;;;;;;;;;;;137534;1274;22510;-79
2023/06/14 17:02:47;;;;;;;;;;;;;;;;;;137463;1274;22586;-79
2023/06/14 17:05:50;;;;;;;;;;;;;;;;;;137501;1274;22306;-79
2023/06/14 17:08:52;;;;;;;;;;;;;;;;;;137509;1274;22401;-79
2023/06/14 17:11:55;;;;;;;;;;;;;;;;;;137471;1274;22323;-80
2023/06/14 17:15:00;;;;;;;;;;;;;;;;;;137504;1274;22369;-79
2023/06/14 17:18:03;;;;;;;;;;;;;;;;;;137481;1274;22442;-80
2023/06/14 17:21:05;;;;;;;;;;;;;;;;;;137427;1274;22882;-80
2023/06/14 17:24:08;;;;;;;;;;;;;;;;;;137465;1274;23375;-80
2023/06/14 17:27:11;;;;;;;;;;;;;;;;;;137406;1274;22489;-80
2023/06/14 17:30:13;;;;;;;;;;;;;;;;;;137463;1274;22275;-79
2023/06/14 17:33:17;;;;;;;;;;;;;;;;;;137421;1274;22313;-79
2023/06/14 17:36:19;;;;;;;;;;;;;;;;;;137406;1274;22474;-78
2023/06/14 17:39:22;;;;;;;;;;;;;;;;;;137418;1274;22503;-79
2023/06/14 17:42:24;;;;;;;;;;;;;;;;;;137496;1274;22916;-78
2023/06/14 17:45:27;;;;;;;;;;;;;;;;;;137362;1274;22494;-78
2023/06/14 17:48:32;;;;;;;;;;;;;;;;;;137447;1274;22387;-78
2023/06/14 17:51:35;;;;;;;;;;;;;;;;;;137447;1274;22805;-79
2023/06/14 17:54:37;;;;;;;;;;;;;;;;;;137485;1274;22839;-78
2023/06/14 17:57:40;;;;;;;;;;;;;;;;;;137403;1274;22353;-79
2023/06/14 18:00:42;;;;;;;;;;;;;;;;;;137440;1274;23044;-79
2023/06/14 18:03:45;;;;;;;;;;;;;;;;;;137430;1274;22497;-79
2023/06/14 18:06:47;;;;;;;;;;;;;;;;;;137489;1274;22582;-78
2023/06/14 18:09:50;;;;;;;;;;;;;;;;;;137379;1274;23304;-79
2023/06/14 18:12:53;;;;;;;;;;;;;;;;;;137442;1274;22366;-79
2023/06/14 18:15:55;;;;;;;;;;;;;;;;;;137450;1274;22433;-79
2023/06/14 18:18:58;;;;;;;;;;;;;;;;;;137425;1274;22483;-79
2023/06/14 18:22:00;;;;;;;;;;;;;;;;;;137405;1274;22501;-79
2023/06/14 18:25:03;;;;;;;;;;;;;;;;;;137471;1274;23080;-79
2023/06/14 18:28:05;;;;;;;;;;;;;;;;;;137368;1274;22495;-79
2023/06/14 18:31:08;;;;;;;;;;;;;;;;;;137271;1274;22516;-80
2023/06/14 18:34:10;;;;;;;;;;;;;;;;;;137494;1274;22501;-79
2023/06/14 18:37:13;;;;;;;;;;;;;;;;;;137478;1274;22741;-80
2023/06/14 18:40:15;;;;;;;;;;;;;;;;;;137361;1274;22518;-80
2023/06/14 18:43:18;;;;;;;;;;;;;;;;;;137466;1274;22332;-79
2023/06/14 18:46:20;;;;;;;;;;;;;;;;;;137459;1274;22504;-79
2023/06/14 18:49:23;;;;;;;;;;;;;;;;;;137501;1274;23018;-80
2023/06/14 18:52:28;;;;;;;;;;;;;;;;;;137424;1274;22589;-80
2023/06/14 18:55:30;;;;;;;;;;;;;;;;;;137529;1274;22378;-80
2023/06/14 18:58:33;;;;;;;;;;;;;;;;;;137472;1274;22691;-80
2023/06/14 19:01:35;;;;;;;;;;;;;;;;;;137481;1274;22329;-80
2023/06/14 19:04:38;;;;;;;;;;;;;;;;;;137511;1274;22361;-80
2023/06/14 19:07:40;;;;;;;;;;;;;;;;;;137134;1274;22912;-81
2023/06/14 19:10:43;;;;;;;;;;;;;;;;;;136769;1274;22532;-80
2023/06/14 19:13:45;;;;;;;;;;;;;;;;;;137487;1274;22511;-81
2023/06/14 19:16:50;;;;;;;;;;;;;;;;;;137460;1274;22573;-80
2023/06/14 19:19:52;;;;;;;;;;;;;;;;;;137374;1274;22507;-80
2023/06/14 19:22:55;;;;;;;;;;;;;;;;;;137507;1274;22534;-81
2023/06/14 19:25:57;;;;;;;;;;;;;;;;;;137280;1274;22457;-80
2023/06/14 19:29:00;;;;;;;;;;;;;;;;;;137620;1272;22546;-80
2023/06/14 19:32:03;;;;;;;;;;;;;;;;;;137265;1274;22521;-79
2023/06/14 19:35:05;;;;;;;;;;;;;;;;;;137578;1274;22874;-80
2023/06/14 19:38:08;;;;;;;;;;;;;;;;;;137473;1274;22478;-80
2023/06/14 19:41:10;;;;;;;;;;;;;;;;;;137434;1274;22302;-80
2023/06/14 19:44:13;;;;;;;;;;;;;;;;;;137456;1262;22281;-80
2023/06/14 19:47:15;;;;;;;;;;;;;;;;;;137435;1274;22442;-81
2023/06/14 19:50:18;;;;;;;;;;;;;;;;;;137501;1274;22339;-80
2023/06/14 19:53:20;;;;;;;;;;;;;;;;;;137454;1271;22299;-79
2023/06/14 19:56:23;;;;;;;;;;;;;;;;;;137469;1274;22537;-79
2023/06/14 19:59:26;;;;;;;;;;;;;;;;;;137458;1274;22338;-79
2023/06/14 20:02:28;;;;;;;;;;;;;;;;;;137410;1274;22342;-79
2023/06/14 20:05:31;;;;;;;;;;;;;;;;;;137455;1274;22318;-80
2023/06/14 20:08:33;;;;;;;;;;;;;;;;;;137421;1262;22288;-80
2023/06/14 20:11:36;;;;;;;;;;;;;;;;;;137383;1274;22284;-79
2023/06/14 20:14:38;;;;;;;;;;;;;;;;;;137373;1266;22296;-79
2023/06/14 20:17:41;;;;;;;;;;;;;;;;;;137452;1274;22417;-81
2023/06/14 20:20:46;;;;;;;;;;;;;;;;;;137447;1274;22427;-81
2023/06/14 20:23:49;;;;;;;;;;;;;;;;;;137415;1274;22338;-80
2023/06/14 20:26:52;;;;;;;;;;;;;;;;;;137391;1274;22323;-81
2023/06/14 20:29:54;;;;;;;;;;;;;;;;;;137377;1274;22341;-80